aviador You're here:

KNEW Decoded Metar

NEW ORLEANS/LAKE in LA, USA
Report Time2017-07-24 13:53:00
UTC Time2017-07-24 14:49:25
Flight Rules vfr VFR
Wind230° at 12 kt
W.Decomp.*RWY 27: 8.9 kt HW 8 kt LCW
RWY 18: 8.0 kt HW 8.9 kt RCW
W.Rank230° ranks 25
Current wind is above 230° avg. (8.3)
Visibility9999 m
Phenomena:N/A
Clouds:N/A
Expected CloudBase > 1,200 ft AGL from Temp-Dew spread
CeilingNone
Temp29°C (ISA +14)
Dew Point26°C (84% RH)
Heat Index35.6°C
QNH1016 hPa
Density Alt1,959 ft
Elevation10 ft
Report Wrong Elevation
Raw Report
KNEW 241353Z 23012KT 10SM CLR 29/26 A3001 RMK AO2 SLP155
T02940256=

Extra information for KNEW:More info

Metar Taf Metar & Taf Last 4 Metars F.Rules Stats Wind Profile Meteogram Temp Stats Airport Information Weather charts Add Link Nearby VenuesMetar ALERT Operation Metar Decoded Social comments

AIRNAV info for KNEW